sensor_id;sensor_type;location;lat;lon;timestamp;P1;durP1;ratioP1;P2;durP2;ratioP2
24751;SDS011;27246;52.376;4.628;2023-11-22T00:03:48;7.53;;;5.35;;
24751;SDS011;27246;52.376;4.628;2023-11-22T00:08:51;6.30;;;5.18;;
24751;SDS011;27246;52.376;4.628;2023-11-22T00:13:53;7.00;;;5.35;;
24751;SDS011;27246;52.376;4.628;2023-11-22T00:18:58;6.10;;;5.45;;
24751;SDS011;27246;52.376;4.628;2023-11-22T00:24:01;8.55;;;5.95;;
24751;SDS011;27246;52.376;4.628;2023-11-22T00:29:04;7.63;;;6.00;;
24751;SDS011;27246;52.376;4.628;2023-11-22T00:34:06;7.65;;;5.93;;
24751;SDS011;27246;52.376;4.628;2023-11-22T00:39:08;8.45;;;6.03;;
24751;SDS011;27246;52.376;4.628;2023-11-22T00:44:17;8.68;;;6.15;;
24751;SDS011;27246;52.376;4.628;2023-11-22T00:49:20;8.20;;;6.30;;
24751;SDS011;27246;52.376;4.628;2023-11-22T00:54:22;8.35;;;6.45;;
24751;SDS011;27246;52.376;4.628;2023-11-22T00:59:24;8.57;;;6.72;;
24751;SDS011;27246;52.376;4.628;2023-11-22T01:04:28;8.68;;;6.70;;
24751;SDS011;27246;52.376;4.628;2023-11-22T01:09:29;8.75;;;6.10;;
24751;SDS011;27246;52.376;4.628;2023-11-22T01:14:33;8.45;;;6.15;;
24751;SDS011;27246;52.376;4.628;2023-11-22T01:19:35;7.93;;;6.32;;
24751;SDS011;27246;52.376;4.628;2023-11-22T01:24:39;8.10;;;6.13;;
24751;SDS011;27246;52.376;4.628;2023-11-22T01:29:40;7.05;;;6.35;;
24751;SDS011;27246;52.376;4.628;2023-11-22T01:34:45;8.35;;;6.45;;
24751;SDS011;27246;52.376;4.628;2023-11-22T01:39:49;7.57;;;5.85;;
24751;SDS011;27246;52.376;4.628;2023-11-22T01:44:51;7.65;;;6.30;;
24751;SDS011;27246;52.376;4.628;2023-11-22T01:49:54;11.38;;;7.53;;
24751;SDS011;27246;52.376;4.628;2023-11-22T01:54:56;7.63;;;6.40;;
24751;SDS011;27246;52.376;4.628;2023-11-22T02:00:03;7.20;;;6.50;;
24751;SDS011;27246;52.376;4.628;2023-11-22T02:05:15;7.97;;;6.00;;
24751;SDS011;27246;52.376;4.628;2023-11-22T02:10:17;8.95;;;6.43;;
24751;SDS011;27246;52.376;4.628;2023-11-22T02:15:19;6.78;;;5.97;;
24751;SDS011;27246;52.376;4.628;2023-11-22T02:20:21;8.10;;;6.32;;
24751;SDS011;27246;52.376;4.628;2023-11-22T02:25:23;8.32;;;6.80;;
24751;SDS011;27246;52.376;4.628;2023-11-22T02:30:25;7.35;;;6.13;;
24751;SDS011;27246;52.376;4.628;2023-11-22T02:35:27;7.13;;;6.30;;
24751;SDS011;27246;52.376;4.628;2023-11-22T02:40:29;7.13;;;6.32;;
24751;SDS011;27246;52.376;4.628;2023-11-22T02:45:34;8.00;;;6.35;;
24751;SDS011;27246;52.376;4.628;2023-11-22T02:50:36;7.28;;;6.13;;
24751;SDS011;27246;52.376;4.628;2023-11-22T02:55:41;7.50;;;6.65;;
24751;SDS011;27246;52.376;4.628;2023-11-22T03:00:43;7.72;;;6.60;;
24751;SDS011;27246;52.376;4.628;2023-11-22T03:05:50;7.60;;;6.50;;
24751;SDS011;27246;52.376;4.628;2023-11-22T03:10:52;7.43;;;6.72;;
24751;SDS011;27246;52.376;4.628;2023-11-22T03:15:54;8.32;;;7.45;;
24751;SDS011;27246;52.376;4.628;2023-11-22T03:20:57;10.00;;;7.00;;
24751;SDS011;27246;52.376;4.628;2023-11-22T03:25:59;8.90;;;7.18;;
24751;SDS011;27246;52.376;4.628;2023-11-22T03:31:00;8.43;;;6.90;;
24751;SDS011;27246;52.376;4.628;2023-11-22T03:36:05;7.75;;;6.30;;
24751;SDS011;27246;52.376;4.628;2023-11-22T03:41:07;7.85;;;7.03;;
24751;SDS011;27246;52.376;4.628;2023-11-22T03:46:09;8.25;;;6.32;;
24751;SDS011;27246;52.376;4.628;2023-11-22T03:51:14;9.23;;;7.05;;
24751;SDS011;27246;52.376;4.628;2023-11-22T03:56:18;9.23;;;7.15;;
24751;SDS011;27246;52.376;4.628;2023-11-22T04:01:20;9.70;;;6.72;;
24751;SDS011;27246;52.376;4.628;2023-11-22T04:06:23;8.75;;;7.00;;
24751;SDS011;27246;52.376;4.628;2023-11-22T04:11:25;8.02;;;7.22;;
24751;SDS011;27246;52.376;4.628;2023-11-22T04:16:29;10.07;;;7.80;;
24751;SDS011;27246;52.376;4.628;2023-11-22T04:21:31;10.27;;;8.02;;
24751;SDS011;27246;52.376;4.628;2023-11-22T04:26:33;10.68;;;8.68;;
24751;SDS011;27246;52.376;4.628;2023-11-22T04:31:35;10.95;;;8.77;;
24751;SDS011;27246;52.376;4.628;2023-11-22T04:36:37;11.25;;;8.32;;
24751;SDS011;27246;52.376;4.628;2023-11-22T04:41:40;11.68;;;8.98;;
24751;SDS011;27246;52.376;4.628;2023-11-22T04:46:42;11.57;;;8.77;;
24751;SDS011;27246;52.376;4.628;2023-11-22T04:51:44;12.27;;;9.10;;
24751;SDS011;27246;52.376;4.628;2023-11-22T04:56:48;10.73;;;9.30;;
24751;SDS011;27246;52.376;4.628;2023-11-22T05:01:51;14.57;;;10.25;;
24751;SDS011;27246;52.376;4.628;2023-11-22T05:06:53;10.77;;;9.68;;
24751;SDS011;27246;52.376;4.628;2023-11-22T05:11:56;11.95;;;9.40;;
24751;SDS011;27246;52.376;4.628;2023-11-22T05:16:58;11.48;;;9.85;;
24751;SDS011;27246;52.376;4.628;2023-11-22T05:22:00;10.63;;;9.45;;
24751;SDS011;27246;52.376;4.628;2023-11-22T05:27:02;12.70;;;10.43;;
24751;SDS011;27246;52.376;4.628;2023-11-22T05:32:04;11.57;;;10.38;;
24751;SDS011;27246;52.376;4.628;2023-11-22T05:37:06;10.88;;;9.77;;
24751;SDS011;27246;52.376;4.628;2023-11-22T05:42:08;12.75;;;11.10;;
24751;SDS011;27246;52.376;4.628;2023-11-22T05:47:10;12.95;;;11.02;;
24751;SDS011;27246;52.376;4.628;2023-11-22T05:52:17;14.35;;;10.57;;
24751;SDS011;27246;52.376;4.628;2023-11-22T05:57:19;12.32;;;11.05;;
24751;SDS011;27246;52.376;4.628;2023-11-22T06:02:21;12.50;;;10.38;;
24751;SDS011;27246;52.376;4.628;2023-11-22T06:07:23;13.65;;;10.60;;
24751;SDS011;27246;52.376;4.628;2023-11-22T06:12:52;12.73;;;10.70;;
24751;SDS011;27246;52.376;4.628;2023-11-22T06:17:57;12.57;;;10.88;;
24751;SDS011;27246;52.376;4.628;2023-11-22T06:23:00;13.63;;;11.45;;
24751;SDS011;27246;52.376;4.628;2023-11-22T06:28:02;13.55;;;11.73;;
24751;SDS011;27246;52.376;4.628;2023-11-22T06:33:04;13.90;;;11.20;;
24751;SDS011;27246;52.376;4.628;2023-11-22T06:38:06;13.10;;;11.70;;
24751;SDS011;27246;52.376;4.628;2023-11-22T06:43:08;14.05;;;11.27;;
24751;SDS011;27246;52.376;4.628;2023-11-22T06:48:12;14.68;;;11.50;;
24751;SDS011;27246;52.376;4.628;2023-11-22T06:53:14;14.88;;;10.95;;
24751;SDS011;27246;52.376;4.628;2023-11-22T06:58:18;14.95;;;11.38;;
24751;SDS011;27246;52.376;4.628;2023-11-22T07:03:21;14.30;;;10.95;;
24751;SDS011;27246;52.376;4.628;2023-11-22T07:08:24;13.10;;;10.77;;
24751;SDS011;27246;52.376;4.628;2023-11-22T07:13:28;14.35;;;11.90;;
24751;SDS011;27246;52.376;4.628;2023-11-22T07:18:30;14.93;;;11.40;;
24751;SDS011;27246;52.376;4.628;2023-11-22T07:23:33;15.52;;;12.27;;
24751;SDS011;27246;52.376;4.628;2023-11-22T07:28:35;13.65;;;11.00;;
24751;SDS011;27246;52.376;4.628;2023-11-22T07:33:37;14.13;;;11.63;;
24751;SDS011;27246;52.376;4.628;2023-11-22T07:38:43;15.27;;;12.38;;
24751;SDS011;27246;52.376;4.628;2023-11-22T07:43:47;13.00;;;11.13;;
24751;SDS011;27246;52.376;4.628;2023-11-22T07:48:51;15.05;;;12.10;;
24751;SDS011;27246;52.376;4.628;2023-11-22T07:54:07;16.25;;;12.98;;
24751;SDS011;27246;52.376;4.628;2023-11-22T07:59:11;15.45;;;12.25;;
24751;SDS011;27246;52.376;4.628;2023-11-22T08:04:13;14.98;;;12.38;;
24751;SDS011;27246;52.376;4.628;2023-11-22T08:09:28;15.27;;;12.73;;
24751;SDS011;27246;52.376;4.628;2023-11-22T08:14:34;17.95;;;13.23;;
24751;SDS011;27246;52.376;4.628;2023-11-22T08:19:37;18.50;;;13.80;;
24751;SDS011;27246;52.376;4.628;2023-11-22T08:24:43;16.80;;;13.00;;
24751;SDS011;27246;52.376;4.628;2023-11-22T08:29:47;17.10;;;12.50;;
24751;SDS011;27246;52.376;4.628;2023-11-22T08:34:50;18.48;;;13.38;;
24751;SDS011;27246;52.376;4.628;2023-11-22T08:39:53;17.13;;;13.20;;
24751;SDS011;27246;52.376;4.628;2023-11-22T08:44:55;15.95;;;12.65;;
24751;SDS011;27246;52.376;4.628;2023-11-22T08:49:57;17.45;;;13.57;;
24751;SDS011;27246;52.376;4.628;2023-11-22T08:55:00;19.45;;;14.38;;
24751;SDS011;27246;52.376;4.628;2023-11-22T09:00:03;15.60;;;13.48;;
24751;SDS011;27246;52.376;4.628;2023-11-22T09:05:16;16.73;;;13.73;;
24751;SDS011;27246;52.376;4.628;2023-11-22T09:10:21;17.30;;;13.73;;
24751;SDS011;27246;52.376;4.628;2023-11-22T09:15:23;17.42;;;14.13;;
24751;SDS011;27246;52.376;4.628;2023-11-22T09:20:28;16.58;;;13.30;;
24751;SDS011;27246;52.376;4.628;2023-11-22T09:25:30;15.50;;;12.95;;
24751;SDS011;27246;52.376;4.628;2023-11-22T09:50:01;18.05;;;14.13;;
24751;SDS011;27246;52.376;4.628;2023-11-22T09:55:31;17.75;;;14.02;;
24751;SDS011;27246;52.376;4.628;2023-11-22T10:12:06;16.70;;;13.50;;
24751;SDS011;27246;52.376;4.628;2023-11-22T10:18:04;16.33;;;13.15;;
24751;SDS011;27246;52.376;4.628;2023-11-22T11:47:57;19.30;;;14.35;;
24751;SDS011;27246;52.376;4.628;2023-11-22T11:53:13;17.95;;;14.38;;
24751;SDS011;27246;52.376;4.628;2023-11-22T11:58:29;18.90;;;13.23;;
24751;SDS011;27246;52.376;4.628;2023-11-22T12:08:54;17.13;;;13.02;;
24751;SDS011;27246;52.376;4.628;2023-11-22T12:14:03;17.48;;;14.40;;
24751;SDS011;27246;52.376;4.628;2023-11-22T12:19:08;14.13;;;11.30;;
24751;SDS011;27246;52.376;4.628;2023-11-22T12:24:21;13.93;;;11.88;;
24751;SDS011;27246;52.376;4.628;2023-11-22T12:35:04;15.02;;;13.05;;
24751;SDS011;27246;52.376;4.628;2023-11-22T13:15:00;17.88;;;11.85;;
24751;SDS011;27246;52.376;4.628;2023-11-22T14:45:32;15.40;;;11.75;;
24751;SDS011;27246;52.376;4.628;2023-11-22T18:00:12;18.02;;;12.40;;
24751;SDS011;27246;52.376;4.628;2023-11-22T18:06:02;17.00;;;11.65;;
24751;SDS011;27246;52.376;4.628;2023-11-22T18:18:31;13.35;;;9.63;;
24751;SDS011;27246;52.376;4.628;2023-11-22T18:48:29;9.50;;;3.13;;
24751;SDS011;27246;52.376;4.628;2023-11-22T18:59:40;11.48;;;3.53;;
24751;SDS011;27246;52.376;4.628;2023-11-22T19:04:59;10.95;;;3.55;;
24751;SDS011;27246;52.376;4.628;2023-11-22T19:16:12;10.43;;;3.92;;
24751;SDS011;27246;52.376;4.628;2023-11-22T19:21:30;8.77;;;3.53;;
24751;SDS011;27246;52.376;4.628;2023-11-22T19:26:47;9.15;;;3.92;;
24751;SDS011;27246;52.376;4.628;2023-11-22T19:32:17;12.32;;;4.57;;
24751;SDS011;27246;52.376;4.628;2023-11-22T19:37:39;11.48;;;4.88;;
24751;SDS011;27246;52.376;4.628;2023-11-22T19:42:58;11.90;;;4.55;;
24751;SDS011;27246;52.376;4.628;2023-11-22T20:05:52;7.45;;;3.78;;
24751;SDS011;27246;52.376;4.628;2023-11-22T20:11:22;10.20;;;4.38;;
24751;SDS011;27246;52.376;4.628;2023-11-22T20:16:48;8.95;;;5.40;;
